createdAt,value
2023-01-19T00:01:36.764Z,99528.14
2023-01-19T00:04:03.622Z,99530.69
2023-01-19T00:06:30.513Z,99535.02
2023-01-19T00:08:57.259Z,99546.58
2023-01-19T00:11:24.075Z,99558.89
2023-01-19T00:13:51.129Z,99571.67
2023-01-19T00:16:18.661Z,99575.73
2023-01-19T00:18:45.878Z,99573.84
2023-01-19T00:21:14.812Z,99562.83
2023-01-19T00:23:42.655Z,99555.49
2023-01-19T00:26:10.706Z,99561.34
2023-01-19T00:28:37.401Z,99580.20
2023-01-19T00:31:04.193Z,99596.23
2023-01-19T00:33:31.132Z,99591.05
2023-01-19T00:35:57.853Z,99573.11
2023-01-19T00:38:24.549Z,99560.27
2023-01-19T00:40:51.163Z,99557.41
2023-01-19T00:43:17.884Z,99572.92
2023-01-19T00:45:45.358Z,99577.98
2023-01-19T00:48:12.041Z,99563.41
2023-01-19T00:50:38.714Z,99560.50
2023-01-19T00:53:05.382Z,99562.61
2023-01-19T00:55:33.412Z,99565.38
2023-01-19T00:58:00.281Z,99560.55
2023-01-19T01:00:27.020Z,99574.77
2023-01-19T01:02:53.957Z,99570.48
2023-01-19T01:05:21.034Z,99560.14
2023-01-19T01:07:49.485Z,99551.49
2023-01-19T01:10:18.379Z,99558.70
2023-01-19T01:12:56.188Z,99565.27
2023-01-19T01:15:26.484Z,99561.81
2023-01-19T01:17:53.323Z,99562.72
2023-01-19T01:20:22.251Z,99565.58
2023-01-19T01:22:50.828Z,99573.29
2023-01-19T01:25:19.270Z,99580.80
2023-01-19T01:27:45.944Z,99595.79
2023-01-19T01:30:13.571Z,99617.20
2023-01-19T01:32:40.695Z,99624.88
2023-01-19T01:35:09.339Z,99625.31
2023-01-19T01:37:36.768Z,99615.59
2023-01-19T01:40:04.828Z,99604.55
2023-01-19T01:42:32.091Z,99608.95
2023-01-19T01:45:01.640Z,99612.50
2023-01-19T01:47:36.518Z,99609.98
2023-01-19T01:50:22.630Z,99613.59
2023-01-19T02:03:11.596Z,99607.98
2023-01-19T02:05:38.516Z,99603.69
2023-01-19T02:08:42.512Z,99603.98
2023-01-19T02:11:28.229Z,99604.98
2023-01-19T02:13:54.944Z,99617.61
2023-01-19T02:16:21.760Z,99625.50
2023-01-19T02:18:48.910Z,99627.17
2023-01-19T02:21:46.567Z,99631.50
2023-01-19T02:24:13.349Z,99632.35
2023-01-19T02:26:44.692Z,99627.98
2023-01-19T02:29:19.837Z,99620.36
2023-01-19T02:31:46.580Z,99616.66
2023-01-19T02:34:15.911Z,99617.70
2023-01-19T02:36:49.271Z,99610.08
2023-01-19T02:39:16.219Z,99608.31
2023-01-19T02:41:45.075Z,99598.06
2023-01-19T02:44:11.765Z,99623.86
2023-01-19T02:46:38.562Z,99625.84
2023-01-19T02:49:05.233Z,99605.45
2023-01-19T02:51:32.280Z,99600.59
2023-01-19T02:54:04.888Z,99610.38
2023-01-19T02:56:53.590Z,99613.73
2023-01-19T02:59:46.947Z,99616.10
2023-01-19T03:02:26.075Z,99627.36
2023-01-19T03:04:56.520Z,99629.23
2023-01-19T03:07:39.049Z,99632.02
2023-01-19T03:10:21.054Z,99636.29
2023-01-19T03:12:59.485Z,99626.43
2023-01-19T03:15:31.849Z,99619.39
2023-01-19T03:17:58.965Z,99621.92
2023-01-19T03:20:28.993Z,99624.23
2023-01-19T03:23:04.565Z,99630.27
2023-01-19T03:25:31.987Z,99630.45
2023-01-19T03:27:58.615Z,99630.58
2023-01-19T03:30:29.980Z,99632.05
2023-01-19T03:33:03.448Z,99627.02
2023-01-19T03:35:32.021Z,99633.11
2023-01-19T03:37:58.896Z,99629.63
2023-01-19T03:40:27.356Z,99632.08
2023-01-19T03:42:54.017Z,99630.08
2023-01-19T03:45:21.789Z,99629.27
2023-01-19T03:47:48.679Z,99632.99
2023-01-19T03:50:22.121Z,99640.29
2023-01-19T03:53:00.823Z,99638.86
2023-01-19T03:55:28.090Z,99629.55
2023-01-19T03:57:54.929Z,99625.45
2023-01-19T04:00:21.667Z,99632.65
2023-01-19T04:02:48.379Z,99640.06
2023-01-19T04:05:15.557Z,99645.27
2023-01-19T04:07:42.289Z,99646.61
2023-01-19T04:10:12.871Z,99651.96
2023-01-19T04:12:42.826Z,99657.98
2023-01-19T04:15:09.503Z,99665.44
2023-01-19T04:17:36.301Z,99669.79
2023-01-19T04:20:03.064Z,99669.70
2023-01-19T04:22:29.906Z,99668.62
2023-01-19T04:24:56.653Z,99666.96
2023-01-19T04:27:23.408Z,99668.74
2023-01-19T04:29:50.301Z,99674.64
2023-01-19T04:32:17.007Z,99675.67
2023-01-19T04:34:43.869Z,99673.12
2023-01-19T04:37:10.568Z,99664.13
2023-01-19T04:39:37.192Z,99658.95
2023-01-19T04:42:03.962Z,99664.14
2023-01-19T04:44:30.771Z,99667.77
2023-01-19T04:46:57.809Z,99682.08
2023-01-19T04:49:24.564Z,99681.37
2023-01-19T04:51:53.718Z,99685.14
2023-01-19T04:54:20.924Z,99676.41
2023-01-19T04:56:47.749Z,99666.77
2023-01-19T04:59:14.480Z,99673.33
2023-01-19T05:01:41.159Z,99680.61
2023-01-19T05:04:08.521Z,99674.52
2023-01-19T05:06:35.321Z,99673.71
2023-01-19T05:09:02.163Z,99665.46
2023-01-19T05:11:28.828Z,99660.39
2023-01-19T05:13:55.532Z,99653.92
2023-01-19T05:16:22.252Z,99660.39
2023-01-19T05:18:49.019Z,99660.05
2023-01-19T05:21:15.686Z,99646.77
2023-01-19T05:23:42.331Z,99653.39
2023-01-19T05:26:10.356Z,99644.11
2023-01-19T05:28:38.024Z,99645.96
2023-01-19T05:31:04.986Z,99657.71
2023-01-19T05:33:31.972Z,99649.25
2023-01-19T05:35:58.763Z,99657.13
2023-01-19T05:38:34.692Z,99661.84
2023-01-19T05:41:01.844Z,99681.73
2023-01-19T05:43:28.718Z,99686.00
2023-01-19T05:45:55.356Z,99680.60
2023-01-19T05:48:22.024Z,99680.77
2023-01-19T05:50:49.610Z,99660.27
2023-01-19T05:53:17.162Z,99668.19
2023-01-19T05:55:44.671Z,99670.49
2023-01-19T05:58:11.388Z,99686.87
2023-01-19T06:00:38.033Z,99686.80
2023-01-19T06:03:06.572Z,99693.95
2023-01-19T06:05:34.106Z,99681.13
2023-01-19T06:08:01.394Z,99662.20
2023-01-19T06:10:28.113Z,99645.76
2023-01-19T06:12:54.771Z,99621.77
2023-01-19T06:15:21.446Z,99620.86
2023-01-19T06:17:48.274Z,99613.73
2023-01-19T06:20:15.024Z,99598.66
2023-01-19T06:22:41.679Z,99581.02
2023-01-19T06:25:08.963Z,99569.50
2023-01-19T06:27:36.470Z,99553.04
2023-01-19T06:30:04.755Z,99547.14
2023-01-19T06:32:31.940Z,99545.91
2023-01-19T06:34:58.579Z,99541.43
2023-01-19T06:37:27.262Z,99543.20
2023-01-19T06:39:54.000Z,99534.83
2023-01-19T06:42:20.684Z,99526.73
2023-01-19T06:44:48.275Z,99523.21
2023-01-19T06:47:16.403Z,99517.00
2023-01-19T06:49:43.723Z,99512.16
2023-01-19T06:52:11.546Z,99508.48
2023-01-19T06:54:38.254Z,99510.27
2023-01-19T06:57:04.953Z,99522.59
2023-01-19T06:59:32.091Z,99530.20
2023-01-19T07:01:59.232Z,99536.00
2023-01-19T07:04:27.158Z,99540.14
2023-01-19T07:06:53.901Z,99544.98
2023-01-19T07:09:20.710Z,99550.02
2023-01-19T07:11:48.347Z,99545.66
2023-01-19T07:14:15.306Z,99547.08
2023-01-19T07:16:42.285Z,99545.31
2023-01-19T07:19:10.851Z,99551.64
2023-01-19T07:21:37.507Z,99548.89
2023-01-19T07:24:04.358Z,99539.79
2023-01-19T07:26:31.042Z,99534.24
2023-01-19T07:28:57.684Z,99544.54
2023-01-19T07:31:24.548Z,99537.98
2023-01-19T07:33:51.397Z,99539.09
2023-01-19T07:36:18.092Z,99539.26
2023-01-19T07:38:44.741Z,99544.33
2023-01-19T07:41:11.591Z,99550.15
2023-01-19T07:43:38.272Z,99556.05
2023-01-19T07:46:05.769Z,99566.64
2023-01-19T12:12:24.536Z,99401.30
2023-01-19T12:15:15.162Z,99403.33
2023-01-19T12:17:47.641Z,99399.59
2023-01-19T12:20:28.081Z,99394.46
2023-01-19T12:23:18.111Z,99395.90
2023-01-19T12:26:13.089Z,99388.03
2023-01-19T12:28:41.743Z,99387.54
2023-01-19T12:31:08.536Z,99390.52
2023-01-19T12:33:37.747Z,99394.10
2023-01-19T12:36:06.143Z,99393.05
2023-01-19T12:38:32.852Z,99397.98
2023-01-19T12:41:16.052Z,99400.75
2023-01-19T12:43:42.812Z,99405.82
2023-01-19T12:46:29.403Z,99414.27
2023-01-19T12:48:56.274Z,99405.65
2023-01-19T12:51:24.230Z,99407.20
2023-01-19T12:53:55.100Z,99401.66
2023-01-19T12:56:28.409Z,99409.15
2023-01-19T12:58:55.119Z,99408.43
2023-01-19T13:01:23.392Z,99409.01
2023-01-19T13:04:09.735Z,99406.80
2023-01-19T13:07:05.766Z,99403.20
2023-01-19T13:09:37.312Z,99404.06
2023-01-19T13:12:19.354Z,99399.60
2023-01-19T13:14:46.449Z,99401.83
2023-01-19T13:17:17.353Z,99406.39
2023-01-19T13:19:46.377Z,99407.82
2023-01-19T13:22:50.452Z,99408.34
2023-01-19T13:25:27.855Z,99419.23
2023-01-19T13:27:54.602Z,99422.73
2023-01-19T13:30:22.431Z,99424.04
2023-01-19T13:32:49.145Z,99426.36
2023-01-19T13:35:17.817Z,99427.09
2023-01-19T13:37:44.630Z,99431.80
2023-01-19T13:40:25.491Z,99434.42
2023-01-19T13:42:52.980Z,99427.38
2023-01-19T13:45:30.118Z,99424.90
2023-01-19T13:47:58.144Z,99426.02
2023-01-19T13:50:29.208Z,99430.39
2023-01-19T13:52:56.778Z,99427.05
2023-01-19T13:55:23.910Z,99428.48
2023-01-19T13:57:51.117Z,99431.83
2023-01-19T14:00:22.854Z,99430.18
2023-01-19T14:02:57.476Z,99434.48
2023-01-19T14:05:40.102Z,99439.70
2023-01-19T14:08:11.385Z,99434.20
2023-01-19T14:10:53.652Z,99431.66
2023-01-19T14:13:21.730Z,99437.88
2023-01-19T14:15:50.285Z,99443.42
2023-01-19T14:18:16.997Z,99444.32
2023-01-19T14:20:57.501Z,99448.47
2023-01-19T14:23:48.804Z,99452.68
2023-01-19T14:26:37.789Z,99460.32
2023-01-19T14:29:15.747Z,99456.48
2023-01-19T14:31:43.858Z,99457.92
2023-01-19T14:34:29.550Z,99453.36
2023-01-19T14:36:56.247Z,99447.89
2023-01-19T14:39:24.446Z,99447.95
2023-01-19T14:41:52.777Z,99449.46
2023-01-19T14:44:32.478Z,99449.74
2023-01-19T14:46:59.784Z,99445.89
2023-01-19T14:49:35.735Z,99446.52
2023-01-19T14:52:20.810Z,99447.22
2023-01-19T14:54:47.483Z,99444.67
2023-01-19T14:57:14.315Z,99455.99
2023-01-19T14:59:41.642Z,99456.08
2023-01-19T15:02:08.849Z,99449.00
2023-01-19T15:04:35.545Z,99442.86
2023-01-19T15:07:02.684Z,99442.91
2023-01-19T15:09:29.408Z,99437.97
2023-01-19T15:11:56.053Z,99438.70
2023-01-19T15:14:22.904Z,99436.27
2023-01-19T15:16:49.707Z,99432.63
2023-01-19T15:19:17.045Z,99428.48
2023-01-19T15:21:45.321Z,99424.80
2023-01-19T15:24:12.715Z,99430.58
2023-01-19T15:26:40.609Z,99429.58
2023-01-19T15:29:26.073Z,99430.67
2023-01-19T15:31:52.884Z,99430.44
2023-01-19T15:34:19.715Z,99433.06
2023-01-19T15:36:46.388Z,99438.59
2023-01-19T15:39:13.084Z,99436.60
2023-01-19T15:41:40.171Z,99431.33
2023-01-19T15:44:07.206Z,99423.11
2023-01-19T15:46:34.070Z,99425.39
2023-01-19T15:49:00.753Z,99426.34
2023-01-19T15:51:27.483Z,99428.80
2023-01-19T15:53:54.454Z,99430.17
2023-01-19T15:56:23.514Z,99432.85
2023-01-19T19:59:04.766Z,99481.52
2023-01-19T20:01:33.742Z,99483.47
2023-01-19T20:04:06.433Z,99482.86
2023-01-19T20:06:38.798Z,99485.70
2023-01-19T20:09:10.316Z,99488.55
2023-01-19T20:11:37.339Z,99491.70
2023-01-19T20:14:08.249Z,99491.55
2023-01-19T20:16:35.115Z,99497.64
2023-01-19T20:19:01.912Z,99504.09
2023-01-19T20:21:33.050Z,99502.31
2023-01-19T20:24:00.887Z,99506.33
2023-01-19T20:26:29.663Z,99502.10
2023-01-19T20:29:02.516Z,99502.00
2023-01-19T20:31:30.769Z,99501.86
2023-01-19T20:33:58.724Z,99505.02
2023-01-19T20:36:25.503Z,99508.83
2023-01-19T20:38:52.677Z,99513.29
2023-01-19T20:41:19.803Z,99516.75
2023-01-19T20:43:46.533Z,99516.72
2023-01-19T20:46:13.301Z,99516.79
2023-01-19T20:48:39.961Z,99519.92
2023-01-19T20:51:11.497Z,99519.07
2023-01-19T20:53:39.293Z,99523.94
2023-01-19T20:56:11.191Z,99522.73
2023-01-19T20:58:38.033Z,99524.92
2023-01-19T21:01:24.496Z,99525.83
2023-01-19T21:03:51.791Z,99531.95
2023-01-19T21:06:19.459Z,99529.99
2023-01-19T21:08:46.228Z,99537.99
2023-01-19T21:11:13.321Z,99538.17
2023-01-19T21:13:40.033Z,99544.41
2023-01-19T21:16:07.128Z,99551.70
2023-01-19T21:18:34.726Z,99551.39
2023-01-19T21:21:01.455Z,99555.29
2023-01-19T21:23:28.403Z,99561.42
2023-01-19T21:25:57.206Z,99560.46
2023-01-19T21:28:23.993Z,99564.45
2023-01-19T21:30:51.839Z,99559.70
2023-01-19T21:33:18.539Z,99567.18
2023-01-19T21:35:55.947Z,99563.29
2023-01-19T21:38:23.554Z,99563.45
2023-01-19T21:40:50.408Z,99562.20
2023-01-19T21:43:19.275Z,99566.21
2023-01-19T21:45:46.828Z,99564.20
2023-01-19T21:48:13.574Z,99564.45
2023-01-19T21:50:40.281Z,99563.75
2023-01-19T21:53:09.659Z,99565.87
2023-01-19T21:55:36.569Z,99572.01
2023-01-19T21:58:03.693Z,99576.04
2023-01-19T23:55:19.011Z,99650.49
2023-01-19T23:57:45.553Z,99644.93
